createdAt,value
2022-11-20T00:00:45.298Z,101235.81
2022-11-20T00:03:12.999Z,101237.66
2022-11-20T00:05:42.077Z,101228.16
2022-11-20T00:08:09.760Z,101226.69
2022-11-20T00:10:38.282Z,101227.06
2022-11-20T00:13:06.016Z,101229.56
2022-11-20T00:15:33.706Z,101234.91
2022-11-20T00:18:01.556Z,101233.25
2022-11-20T00:20:29.628Z,101240.25
2022-11-20T00:22:58.684Z,101229.75
2022-11-20T00:25:26.372Z,101226.44
2022-11-20T00:27:54.039Z,101225.81
2022-11-20T00:30:21.710Z,101216.97
2022-11-20T00:32:49.488Z,101221.50
2022-11-20T00:35:17.206Z,101222.69
2022-11-20T00:37:44.922Z,101223.72
2022-11-20T00:40:14.958Z,101225.56
2022-11-20T00:42:42.629Z,101230.06
2022-11-20T00:45:10.584Z,101230.06
2022-11-20T00:47:38.288Z,101219.56
2022-11-20T00:50:06.838Z,101223.25
2022-11-20T00:52:34.474Z,101216.91
2022-11-20T00:55:02.202Z,101224.09
2022-11-20T00:57:31.255Z,101213.59
2022-11-20T00:59:58.974Z,101214.81
2022-11-20T01:02:26.643Z,101218.09
2022-11-20T01:04:54.303Z,101211.69
2022-11-20T01:07:22.051Z,101215.38
2022-11-20T01:09:49.760Z,101224.75
2022-11-20T01:12:17.373Z,101216.31
2022-11-20T01:14:46.361Z,101224.31
2022-11-20T01:17:14.130Z,101221.47
2022-11-20T01:19:41.908Z,101224.13
2022-11-20T01:22:09.528Z,101219.97
2022-11-20T01:24:37.218Z,101223.94
2022-11-20T01:27:04.946Z,101219.81
2022-11-20T01:29:32.722Z,101222.66
2022-11-20T01:32:01.764Z,101226.34
2022-11-20T01:34:29.432Z,101217.31
2022-11-20T01:36:57.088Z,101224.50
2022-11-20T01:39:26.873Z,101215.66
2022-11-20T01:42:14.192Z,101204.97
2022-11-20T01:44:49.710Z,101205.91
2022-11-20T01:47:24.094Z,101209.03
2022-11-20T01:49:55.101Z,101213.56
2022-11-20T01:52:26.716Z,101213.56
2022-11-20T01:54:58.254Z,101222.56
2022-11-20T01:57:29.593Z,101223.41
2022-11-20T02:00:03.477Z,101228.94
2022-11-20T02:02:32.880Z,101220.09
2022-11-20T02:05:06.991Z,101216.59
2022-11-20T02:07:34.869Z,101213.28
2022-11-20T02:10:02.889Z,101215.75
2022-11-20T02:12:48.137Z,101209.59
2022-11-20T02:15:16.017Z,101205.28
2022-11-20T02:17:45.093Z,101203.63
2022-11-20T02:20:14.014Z,101199.47
2022-11-20T02:22:50.589Z,101203.63
2022-11-20T02:25:21.857Z,101208.13
2022-11-20T02:27:49.936Z,101205.47
2022-11-20T02:30:18.079Z,101185.59
2022-11-20T02:32:45.835Z,101201.50
2022-11-20T02:35:42.074Z,101200.50
2022-11-20T02:38:10.270Z,101198.47
2022-11-20T02:40:39.269Z,101198.66
2022-11-20T02:43:07.192Z,101197.63
2022-11-20T02:45:34.889Z,101201.97
2022-11-20T02:48:02.695Z,101200.31
2022-11-20T02:50:30.339Z,101203.34
2022-11-20T02:52:58.022Z,101211.53
2022-11-20T02:55:25.673Z,101206.84
2022-11-20T02:57:54.716Z,101197.19
2022-11-20T03:00:22.544Z,101191.00
2022-11-20T03:02:50.242Z,101195.53
2022-11-20T03:05:17.961Z,101191.38
2022-11-20T03:07:46.003Z,101195.72
2022-11-20T03:10:13.938Z,101193.69
2022-11-20T03:12:41.658Z,101192.22
2022-11-20T03:15:12.190Z,101201.22
2022-11-20T03:17:39.829Z,101191.38
2022-11-20T03:20:10.068Z,101180.88
2022-11-20T03:22:37.873Z,101180.88
2022-11-20T03:25:06.391Z,101176.38
2022-11-20T03:27:35.784Z,101181.06
2022-11-20T03:30:03.758Z,101188.25
2022-11-20T03:32:33.110Z,101176.75
2022-11-20T03:35:00.873Z,101166.25
2022-11-20T03:37:28.540Z,101169.75
2022-11-20T03:39:56.169Z,101170.59
2022-11-20T03:42:41.382Z,101159.44
2022-11-20T03:45:09.824Z,101152.28
2022-11-20T03:47:38.827Z,101153.94
2022-11-20T03:50:07.829Z,101162.94
2022-11-20T03:52:35.502Z,101158.44
2022-11-20T03:55:03.237Z,101155.78
2022-11-20T03:57:30.942Z,101154.13
2022-11-20T03:59:58.769Z,101145.00
2022-11-20T04:02:26.450Z,101141.78
2022-11-20T04:04:55.498Z,101144.63
2022-11-20T04:07:23.215Z,101144.63
2022-11-20T04:09:50.932Z,101141.97
2022-11-20T04:12:18.589Z,101140.50
2022-11-20T04:14:46.388Z,101142.34
2022-11-20T04:17:14.085Z,101142.34
2022-11-20T04:19:41.792Z,101147.03
2022-11-20T04:22:12.583Z,101148.69
2022-11-20T04:24:40.267Z,101144.38
2022-11-20T04:27:07.968Z,101142.72
2022-11-20T04:29:35.691Z,101146.03
2022-11-20T04:32:03.394Z,101126.34
2022-11-20T04:34:31.094Z,101145.38
2022-11-20T04:36:58.806Z,101148.06
2022-11-20T04:39:27.824Z,101139.41
2022-11-20T04:42:15.534Z,101134.25
2022-11-20T04:44:43.191Z,101142.91
2022-11-20T04:47:10.804Z,101140.22
2022-11-20T04:49:38.527Z,101126.88
2022-11-20T04:52:06.238Z,101132.22
2022-11-20T04:54:35.281Z,101124.78
2022-11-20T04:57:02.981Z,101123.13
2022-11-20T04:59:30.696Z,101127.91
2022-11-20T05:01:58.375Z,101128.91
2022-11-20T05:04:26.157Z,101126.44
2022-11-20T05:06:53.811Z,101120.72
2022-11-20T05:09:21.594Z,101127.06
2022-11-20T05:11:51.734Z,101117.22
2022-11-20T05:14:19.529Z,101116.41
2022-11-20T05:16:47.359Z,101118.25
2022-11-20T05:19:15.180Z,101103.25
2022-11-20T05:21:42.913Z,101107.56
2022-11-20T05:24:10.831Z,101104.91
2022-11-20T05:26:38.719Z,101092.75
2022-11-20T05:29:07.725Z,101102.22
2022-11-20T05:31:35.448Z,101100.56
2022-11-20T05:34:03.192Z,101104.25
2022-11-20T05:36:32.042Z,101107.28
2022-11-20T05:39:01.713Z,101104.91
2022-11-20T05:41:30.176Z,101103.88
2022-11-20T05:43:58.896Z,101109.03
2022-11-20T05:46:29.489Z,101100.38
2022-11-20T05:48:58.460Z,101101.22
2022-11-20T05:51:27.649Z,101124.84
2022-11-20T05:53:55.398Z,101115.19
2022-11-20T05:56:24.171Z,101118.69
2022-11-20T05:58:52.043Z,101122.84
2022-11-20T06:01:22.087Z,101128.34
2022-11-20T06:03:51.795Z,101133.78
2022-11-20T06:06:20.837Z,101134.38
2022-11-20T06:08:48.886Z,101135.81
2022-11-20T06:11:17.596Z,101128.56
2022-11-20T06:13:46.399Z,101124.78
2022-11-20T06:16:16.412Z,101131.25
2022-11-20T06:18:44.282Z,101128.06
2022-11-20T06:21:15.675Z,101124.03
2022-11-20T06:23:44.138Z,101119.13
2022-11-20T06:26:15.637Z,101118.50
2022-11-20T06:28:43.321Z,101115.75
2022-11-20T06:31:14.317Z,101122.09
2022-11-20T06:33:42.168Z,101131.88
2022-11-20T06:36:11.028Z,101123.00
2022-11-20T06:38:41.012Z,101122.94
2022-11-20T06:41:09.556Z,101115.69
2022-11-20T06:43:37.221Z,101110.31
2022-11-20T06:46:04.983Z,101107.13
2022-11-20T06:48:32.722Z,101109.97
2022-11-20T06:51:00.957Z,101114.69
2022-11-20T06:53:28.633Z,101099.41
2022-11-20T06:55:58.683Z,101107.00
2022-11-20T06:58:28.805Z,101100.00
2022-11-20T07:00:59.626Z,101092.75
2022-11-20T07:03:27.333Z,101109.78
2022-11-20T07:05:57.324Z,101112.81
2022-11-20T07:08:25.339Z,101113.22
2022-11-20T07:10:53.331Z,101111.38
2022-11-20T07:13:22.417Z,101110.09
2022-11-20T07:15:50.117Z,101101.44
2022-11-20T07:18:17.756Z,101090.13
2022-11-20T07:20:45.472Z,101090.94
2022-11-20T07:23:13.189Z,101091.59
2022-11-20T07:25:40.895Z,101092.78
2022-11-20T07:28:08.579Z,101104.66
2022-11-20T07:30:37.601Z,101103.19
2022-11-20T07:33:05.568Z,101097.56
2022-11-20T07:35:34.776Z,101093.56
2022-11-20T07:38:02.440Z,101092.50
2022-11-20T07:40:30.150Z,101080.03
2022-11-20T07:42:57.947Z,101100.16
2022-11-20T07:45:26.651Z,101095.53
2022-11-20T07:47:55.665Z,101097.50
2022-11-20T07:50:23.341Z,101084.22
2022-11-20T07:52:51.577Z,101100.38
2022-11-20T07:55:19.420Z,101094.28
2022-11-20T07:57:47.097Z,101089.41
2022-11-20T08:00:16.217Z,101093.75
2022-11-20T08:02:43.906Z,101103.47
2022-11-20T08:05:12.991Z,101084.25
2022-11-20T08:07:41.670Z,101096.34
2022-11-20T08:10:11.439Z,101101.97
2022-11-20T08:13:03.502Z,101095.44
2022-11-20T08:15:32.192Z,101105.66
2022-11-20T08:18:29.938Z,101102.50
2022-11-20T08:20:57.135Z,101102.81
2022-11-20T08:23:25.237Z,101109.75
2022-11-20T08:25:53.062Z,101100.66
2022-11-20T08:28:22.148Z,101097.97
2022-11-20T08:30:51.120Z,101092.31
2022-11-20T08:33:19.470Z,101093.97
2022-11-20T08:35:47.768Z,101093.13
2022-11-20T08:38:16.812Z,101099.69
2022-11-20T08:41:05.445Z,101107.50
2022-11-20T08:43:33.200Z,101101.53
2022-11-20T08:46:00.898Z,101105.84
2022-11-20T08:48:28.579Z,101101.72
2022-11-20T08:50:59.989Z,101091.41
2022-11-20T08:53:29.501Z,101089.75
2022-11-20T08:55:58.836Z,101092.63
2022-11-20T08:58:26.952Z,101099.41
2022-11-20T09:00:55.089Z,101097.13
2022-11-20T09:03:23.102Z,101098.59
2022-11-20T09:05:51.554Z,101089.94
2022-11-20T09:08:19.250Z,101094.66
2022-11-20T09:10:53.566Z,101087.66
2022-11-20T09:13:21.407Z,101085.63
2022-11-20T09:15:49.133Z,101080.28
2022-11-20T09:18:16.773Z,101082.50
2022-11-20T09:20:44.600Z,101083.03
2022-11-20T09:23:12.265Z,101076.78
2022-11-20T09:25:39.992Z,101070.94
2022-11-20T09:28:09.064Z,101065.56
2022-11-20T09:30:36.762Z,101053.94
2022-11-20T09:33:06.493Z,101045.84
2022-11-20T09:35:34.399Z,101055.56
2022-11-20T09:38:06.882Z,101055.81
2022-11-20T09:40:37.012Z,101042.00
2022-11-20T09:43:14.684Z,101031.22
2022-11-20T09:45:58.609Z,101036.72
2022-11-20T09:48:50.258Z,101031.53
2022-11-20T09:51:29.701Z,101031.81
2022-11-20T09:54:12.217Z,101029.59
2022-11-20T09:56:43.609Z,101032.03
2022-11-20T09:59:29.530Z,101025.25
2022-11-20T10:01:57.925Z,101010.47
2022-11-20T10:04:26.706Z,101020.31
2022-11-20T10:07:31.955Z,101005.16
2022-11-20T10:09:54.468Z,101003.00
2022-11-20T10:12:33.377Z,100990.88
2022-11-20T10:15:13.694Z,100975.44
2022-11-20T10:17:56.190Z,100969.13
2022-11-20T10:20:32.260Z,100960.06
2022-11-20T10:23:24.299Z,100955.75
2022-11-20T10:26:02.952Z,100956.72
2022-11-20T10:28:55.418Z,100953.22
2022-11-20T10:31:34.006Z,100960.63
2022-11-20T10:34:12.568Z,100958.78
2022-11-20T10:36:46.192Z,100947.44
2022-11-20T10:39:21.460Z,100946.84
2022-11-20T10:41:54.180Z,100937.19
2022-11-20T10:44:41.162Z,100938.44
2022-11-20T10:47:15.855Z,100930.97
2022-11-20T10:49:45.369Z,100921.25
2022-11-20T10:52:22.136Z,100923.50
2022-11-20T10:54:57.305Z,100909.50
2022-11-20T10:57:37.623Z,100903.94
2022-11-20T11:00:08.464Z,100893.22
2022-11-20T11:02:45.313Z,100899.38
2022-11-20T11:05:25.261Z,100900.16
2022-11-20T11:07:56.498Z,100894.81
2022-11-20T11:10:29.474Z,100898.69
2022-11-20T11:12:57.180Z,100896.22
2022-11-20T11:15:30.408Z,100885.72
2022-11-20T11:17:59.481Z,100878.94
2022-11-20T11:20:28.314Z,100864.28
2022-11-20T11:22:57.908Z,100885.31
2022-11-20T11:25:31.736Z,100882.44
2022-11-20T11:28:02.118Z,100883.94
2022-11-20T11:30:32.935Z,100876.16
2022-11-20T11:33:11.622Z,100872.06
2022-11-20T11:35:49.933Z,100867.13
2022-11-20T11:38:23.920Z,100863.44
2022-11-20T11:40:55.200Z,100860.75
2022-11-20T11:43:43.499Z,100858.41
2022-11-20T11:46:27.518Z,100845.97
2022-11-20T11:49:01.588Z,100842.03
2022-11-20T11:51:36.236Z,100837.03
2022-11-20T11:54:12.984Z,100835.53
2022-11-20T11:56:41.042Z,100821.72
2022-11-20T11:59:17.882Z,100824.25
2022-11-20T12:01:50.267Z,100821.66
2022-11-20T12:04:27.314Z,100803.59
2022-11-20T12:07:18.247Z,100803.03
2022-11-20T12:09:56.027Z,100793.81
2022-11-20T12:12:29.136Z,100788.25
2022-11-20T12:14:58.165Z,100779.19
2022-11-20T12:17:25.970Z,100776.94
2022-11-20T12:19:55.036Z,100762.31
2022-11-20T12:22:31.352Z,100759.44
2022-11-20T12:25:04.261Z,100763.34
2022-11-20T12:27:59.235Z,100750.19
2022-11-20T12:30:27.068Z,100738.44
2022-11-20T12:33:12.456Z,100737.63
2022-11-20T12:35:52.259Z,100744.00
2022-11-20T12:38:52.036Z,100736.59
2022-11-20T12:41:47.169Z,100735.16
2022-11-20T12:44:47.767Z,100727.53
2022-11-20T12:47:26.166Z,100720.34
2022-11-20T12:50:04.295Z,100712.53
2022-11-20T12:52:42.906Z,100711.69
2022-11-20T12:55:18.152Z,100701.81
2022-11-20T12:57:52.057Z,100693.38
2022-11-20T13:00:21.649Z,100692.16
2022-11-20T13:03:25.973Z,100683.09
2022-11-20T13:06:02.195Z,100669.06
2022-11-20T13:08:35.117Z,100658.94
2022-11-20T13:11:10.701Z,100660.34
2022-11-20T13:13:51.212Z,100637.38
2022-11-20T13:16:26.092Z,100640.75
2022-11-20T13:18:53.992Z,100632.56
2022-11-20T13:21:25.064Z,100627.94
2022-11-20T13:23:54.135Z,100634.19
2022-11-20T13:26:24.759Z,100630.19
2022-11-20T13:29:05.091Z,100616.88
2022-11-20T13:31:34.723Z,100613.31
2022-11-20T13:34:05.176Z,100611.75
2022-11-20T13:36:33.463Z,100604.47
2022-11-20T13:39:05.466Z,100592.69
2022-11-20T13:41:36.368Z,100579.50
2022-11-20T13:44:14.969Z,100581.28
2022-11-20T13:46:45.444Z,100580.25
2022-11-20T13:49:20.517Z,100569.56
2022-11-20T13:51:51.526Z,100580.47
2022-11-20T13:54:54.703Z,100573.53
2022-11-20T13:57:50.265Z,100560.53
2022-11-20T14:00:20.347Z,100555.97
2022-11-20T14:03:01.605Z,100559.44
2022-11-20T14:05:30.376Z,100556.91
2022-11-20T14:07:59.081Z,100550.56
2022-11-20T14:10:32.308Z,100551.66
2022-11-20T14:13:01.005Z,100541.22
2022-11-20T14:15:31.146Z,100538.56
2022-11-20T14:17:59.460Z,100528.06
2022-11-20T14:20:32.232Z,100523.22
2022-11-20T14:22:59.898Z,100518.91
2022-11-20T14:25:28.974Z,100527.16
2022-11-20T14:27:59.286Z,100522.88
2022-11-20T14:30:29.753Z,100514.47
2022-11-20T14:33:02.304Z,100510.34
2022-11-20T14:35:33.585Z,100517.78
2022-11-20T14:38:02.601Z,100516.16
2022-11-20T14:40:33.912Z,100502.16
2022-11-20T14:43:01.737Z,100498.88
2022-11-20T14:45:29.733Z,100492.91
2022-11-20T14:47:59.808Z,100488.78
2022-11-20T14:50:31.300Z,100475.59
2022-11-20T14:53:00.592Z,100472.72
2022-11-20T14:55:31.992Z,100459.75
2022-11-20T14:58:01.566Z,100461.63
2022-11-20T15:00:30.487Z,100450.09
2022-11-20T15:02:58.731Z,100447.41
2022-11-20T15:05:28.276Z,100435.66
2022-11-20T15:08:08.069Z,100435.06
2022-11-20T15:10:38.040Z,100430.97
2022-11-20T15:13:12.572Z,100424.34
2022-11-20T15:15:46.269Z,100419.22
2022-11-20T15:18:15.293Z,100413.25
2022-11-20T15:20:43.864Z,100414.69
2022-11-20T15:23:13.866Z,100411.19
2022-11-20T15:25:43.743Z,100395.34
2022-11-20T15:28:18.904Z,100397.19
2022-11-20T15:30:47.689Z,100393.47
2022-11-20T15:33:16.514Z,100389.16
2022-11-20T15:35:44.608Z,100365.34
2022-11-20T15:38:12.331Z,100384.03
2022-11-20T15:40:40.015Z,100374.97
2022-11-20T15:43:13.400Z,100363.81
2022-11-20T15:45:44.833Z,100364.78
2022-11-20T15:48:16.828Z,100357.81
2022-11-20T15:50:51.783Z,100351.66
2022-11-20T15:53:19.662Z,100340.13
2022-11-20T15:55:47.530Z,100341.16
2022-11-20T15:58:17.661Z,100330.66
2022-11-20T16:00:45.538Z,100325.25
2022-11-20T16:03:13.769Z,100322.84
2022-11-20T16:05:41.613Z,100321.56
2022-11-20T16:08:11.780Z,100315.84
2022-11-20T16:10:40.083Z,100309.84
2022-11-20T16:13:32.538Z,100313.50
2022-11-20T16:16:05.917Z,100307.03
2022-11-20T16:18:34.629Z,100312.72
2022-11-20T16:21:02.944Z,100306.63
2022-11-20T16:23:30.775Z,100311.00
2022-11-20T16:25:58.441Z,100299.09
2022-11-20T16:28:26.152Z,100297.09
2022-11-20T16:30:53.791Z,100293.00
2022-11-20T16:33:22.929Z,100286.44
2022-11-20T16:35:50.586Z,100285.47
2022-11-20T16:38:18.237Z,100289.81
2022-11-20T16:40:45.885Z,100285.47
2022-11-20T16:43:15.918Z,100275.00
2022-11-20T16:45:45.353Z,100280.13
2022-11-20T16:48:17.785Z,100263.56
2022-11-20T16:50:51.434Z,100269.03
2022-11-20T16:53:19.544Z,100265.53
2022-11-20T16:55:47.824Z,100258.00
2022-11-20T16:58:15.623Z,100252.38
2022-11-20T17:00:48.338Z,100246.69
2022-11-20T17:03:19.018Z,100247.75
2022-11-20T17:05:46.842Z,100237.47
2022-11-20T17:08:15.873Z,100232.06
2022-11-20T17:10:43.602Z,100234.72
2022-11-20T17:13:11.316Z,100233.25
2022-11-20T17:15:39.021Z,100233.63
2022-11-20T17:18:06.791Z,100227.34
2022-11-20T17:20:34.496Z,100218.03
2022-11-20T17:23:02.125Z,100212.44
2022-11-20T17:25:34.012Z,100212.44
2022-11-20T17:28:01.659Z,100199.84
2022-11-20T17:30:29.421Z,100201.34
2022-11-20T17:32:57.129Z,100194.78
2022-11-20T17:35:24.851Z,100175.25
2022-11-20T17:37:52.627Z,100187.97
2022-11-20T17:40:25.921Z,100190.31
2022-11-20T17:42:56.404Z,100184.44
2022-11-20T17:45:24.213Z,100183.72
2022-11-20T17:47:52.132Z,100184.78
2022-11-20T17:50:19.900Z,100171.13
2022-11-20T17:52:47.577Z,100180.56
2022-11-20T17:55:15.312Z,100190.03
2022-11-20T17:57:56.498Z,100182.06
2022-11-20T18:00:27.011Z,100213.81
2022-11-20T18:02:55.198Z,100199.44
2022-11-20T18:05:22.972Z,100220.41
2022-11-20T18:07:53.621Z,100231.38
2022-11-20T18:10:21.346Z,100230.44
2022-11-20T18:12:49.053Z,100238.34
2022-11-20T18:15:17.265Z,100239.63
2022-11-20T18:17:46.345Z,100236.34
2022-11-20T18:20:28.603Z,100242.38
2022-11-20T18:22:57.427Z,100249.25
2022-11-20T18:25:25.224Z,100258.25
2022-11-20T18:27:52.885Z,100261.25
2022-11-20T18:30:20.582Z,100253.00
2022-11-20T18:32:50.114Z,100257.34
2022-11-20T18:35:17.949Z,100256.78
2022-11-20T18:37:45.670Z,100257.97
2022-11-20T18:40:14.546Z,100257.75
2022-11-20T18:43:14.644Z,100247.84
2022-11-20T18:45:42.367Z,100253.50
2022-11-20T18:48:11.371Z,100257.47
2022-11-20T18:50:39.063Z,100242.75
2022-11-20T18:53:06.831Z,100248.25
2022-11-20T18:55:34.574Z,100259.00
2022-11-20T18:58:02.299Z,100250.88
2022-11-20T19:00:30.028Z,100266.13
2022-11-20T19:02:57.670Z,100264.25
2022-11-20T19:05:26.761Z,100272.44
2022-11-20T19:07:54.420Z,100271.94
2022-11-20T19:10:24.303Z,100275.78
2022-11-20T19:12:52.035Z,100278.56
2022-11-20T19:15:20.328Z,100276.00
2022-11-20T19:17:48.037Z,100280.19
2022-11-20T19:20:15.940Z,100288.47
2022-11-20T19:22:45.010Z,100281.69
2022-11-20T19:25:12.655Z,100285.66
2022-11-20T19:27:40.394Z,100290.19
2022-11-20T19:30:09.108Z,100292.88
2022-11-20T19:32:36.805Z,100285.88
2022-11-20T19:35:04.958Z,100290.66
2022-11-20T19:37:34.749Z,100291.69
2022-11-20T19:40:05.355Z,100298.69
2022-11-20T19:42:33.487Z,100296.84
2022-11-20T19:45:01.166Z,100302.78
2022-11-20T19:47:46.402Z,100307.94
2022-11-20T19:50:17.047Z,100296.38
2022-11-20T19:52:44.805Z,100301.16
2022-11-20T19:55:13.822Z,100298.09
2022-11-20T19:57:41.488Z,100303.84
2022-11-20T20:00:10.620Z,100312.16
2022-11-20T20:02:38.301Z,100308.69
2022-11-20T20:05:06.704Z,100304.50
2022-11-20T20:07:34.673Z,100306.94
2022-11-20T20:10:02.728Z,100299.94
2022-11-20T20:12:31.853Z,100300.16
2022-11-20T20:14:59.554Z,100303.53
2022-11-20T20:17:27.231Z,100304.22
2022-11-20T20:19:54.912Z,100306.56
2022-11-20T20:22:22.619Z,100310.75
2022-11-20T20:24:52.008Z,100328.09
2022-11-20T20:27:19.729Z,100321.56
2022-11-20T20:29:48.752Z,100326.69
2022-11-20T20:32:16.391Z,100327.97
2022-11-20T20:34:44.077Z,100336.47
2022-11-20T20:37:11.789Z,100335.06
2022-11-20T20:39:39.452Z,100332.63
2022-11-20T20:42:07.094Z,100337.63
2022-11-20T20:44:52.149Z,100356.38
2022-11-20T20:47:21.188Z,100344.25
2022-11-20T20:49:48.878Z,100353.94
2022-11-20T20:52:16.557Z,100350.66
2022-11-20T20:54:44.209Z,100338.28
2022-11-20T20:57:11.940Z,100343.66
2022-11-20T20:59:39.597Z,100352.53
2022-11-20T21:02:07.361Z,100358.94
2022-11-20T21:04:36.437Z,100358.09
2022-11-20T21:07:04.340Z,100365.34
2022-11-20T21:09:32.093Z,100360.28
2022-11-20T21:11:59.766Z,100364.97
2022-11-20T21:14:27.397Z,100375.69
2022-11-20T21:16:55.134Z,100375.69
2022-11-20T21:19:22.783Z,100378.38
2022-11-20T21:22:00.008Z,100371.59
2022-11-20T21:24:28.298Z,100381.28
2022-11-20T21:26:56.315Z,100378.38
2022-11-20T21:29:25.571Z,100385.59
2022-11-20T21:31:54.052Z,100388.06
2022-11-20T21:34:23.285Z,100374.06
2022-11-20T21:36:52.879Z,100374.50
2022-11-20T21:39:21.741Z,100377.19
2022-11-20T21:41:49.494Z,100370.19
2022-11-20T21:44:30.951Z,100363.78
2022-11-20T21:46:59.199Z,100375.56
2022-11-20T21:49:26.897Z,100379.88
2022-11-20T21:51:55.976Z,100376.16
2022-11-20T21:54:23.903Z,100365.03
2022-11-20T21:56:51.828Z,100373.69
2022-11-20T21:59:19.569Z,100367.50
2022-11-20T22:01:47.272Z,100371.22
2022-11-20T22:04:15.992Z,100377.63
2022-11-20T22:06:43.708Z,100374.94
2022-11-20T22:09:12.698Z,100378.69
2022-11-20T22:11:40.492Z,100384.88
2022-11-20T22:14:23.237Z,100389.41
2022-11-20T22:16:53.346Z,100398.28
2022-11-20T22:19:23.225Z,100401.78
2022-11-20T22:21:51.666Z,100398.50
2022-11-20T22:24:22.518Z,100406.53
2022-11-20T22:26:50.927Z,100399.53
2022-11-20T22:29:20.870Z,100404.91
2022-11-20T22:31:48.846Z,100409.22
2022-11-20T22:34:16.618Z,100401.41
2022-11-20T22:36:44.678Z,100411.09
2022-11-20T22:39:12.397Z,100416.66
2022-11-20T22:41:41.421Z,100416.66
2022-11-20T22:44:09.453Z,100422.25
2022-11-20T22:46:38.394Z,100423.06
2022-11-20T22:49:08.497Z,100427.63
2022-11-20T22:51:37.903Z,100429.47
2022-11-20T22:54:06.042Z,100423.28
2022-11-20T22:56:34.656Z,100432.38
2022-11-20T22:59:04.040Z,100431.56
2022-11-20T23:01:33.403Z,100438.56
2022-11-20T23:04:02.711Z,100433.19
2022-11-20T23:06:30.866Z,100432.38
2022-11-20T23:08:58.540Z,100441.47
2022-11-20T23:11:27.939Z,100438.41
2022-11-20T23:13:58.027Z,100453.22
2022-11-20T23:16:28.628Z,100444.38
2022-11-20T23:18:57.784Z,100460.22
2022-11-20T23:21:26.044Z,100465.59
2022-11-20T23:23:55.692Z,100473.03
2022-11-20T23:26:24.942Z,100478.41
2022-11-20T23:28:54.505Z,100485.03
2022-11-20T23:31:22.363Z,100479.28
2022-11-20T23:33:51.648Z,100477.81
2022-11-20T23:36:19.628Z,100480.47
2022-11-20T23:38:47.533Z,100479.66
2022-11-20T23:41:15.771Z,100478.63
2022-11-20T23:43:43.448Z,100463.03
2022-11-20T23:46:16.269Z,100479.44
2022-11-20T23:48:45.751Z,100470.56
2022-11-20T23:51:15.048Z,100474.09
2022-11-20T23:53:42.778Z,100471.47
2022-11-20T23:56:14.234Z,100475.13
2022-11-20T23:58:42.332Z,100480.69
